sensor_id;sensor_type;location;lat;lon;timestamp;P1;durP1;ratioP1;P2;durP2;ratioP2
42538;SDS011;28173;51.376;6.760;2022-08-06T00:02:20;9.65;;;1.67;;
42538;SDS011;28173;51.376;6.760;2022-08-06T00:04:59;6.05;;;1.67;;
42538;SDS011;28173;51.376;6.760;2022-08-06T00:07:28;3.87;;;1.53;;
42538;SDS011;28173;51.376;6.760;2022-08-06T00:10:17;4.80;;;1.60;;
42538;SDS011;28173;51.376;6.760;2022-08-06T00:12:54;6.57;;;2.28;;
42538;SDS011;28173;51.376;6.760;2022-08-06T00:15:21;4.85;;;1.50;;
42538;SDS011;28173;51.376;6.760;2022-08-06T00:18:09;6.63;;;1.50;;
42538;SDS011;28173;51.376;6.760;2022-08-06T00:20:38;6.90;;;1.88;;
42538;SDS011;28173;51.376;6.760;2022-08-06T00:23:08;5.97;;;1.50;;
42538;SDS011;28173;51.376;6.760;2022-08-06T00:25:43;7.63;;;1.67;;
42538;SDS011;28173;51.376;6.760;2022-08-06T00:28:18;6.53;;;1.60;;
42538;SDS011;28173;51.376;6.760;2022-08-06T00:30:56;5.03;;;1.90;;
42538;SDS011;28173;51.376;6.760;2022-08-06T00:33:23;10.52;;;1.80;;
42538;SDS011;28173;51.376;6.760;2022-08-06T00:35:54;5.40;;;1.92;;
42538;SDS011;28173;51.376;6.760;2022-08-06T00:38:25;6.55;;;1.80;;
42538;SDS011;28173;51.376;6.760;2022-08-06T00:40:53;8.57;;;1.73;;
42538;SDS011;28173;51.376;6.760;2022-08-06T00:43:25;4.47;;;1.60;;
42538;SDS011;28173;51.376;6.760;2022-08-06T00:46:05;8.13;;;1.98;;
42538;SDS011;28173;51.376;6.760;2022-08-06T00:48:42;6.10;;;1.95;;
42538;SDS011;28173;51.376;6.760;2022-08-06T00:51:20;5.15;;;1.75;;
42538;SDS011;28173;51.376;6.760;2022-08-06T00:53:49;3.88;;;1.60;;
42538;SDS011;28173;51.376;6.760;2022-08-06T00:58:54;6.57;;;2.22;;
42538;SDS011;28173;51.376;6.760;2022-08-06T01:01:29;7.78;;;1.90;;
42538;SDS011;28173;51.376;6.760;2022-08-06T01:04:17;5.35;;;1.90;;
42538;SDS011;28173;51.376;6.760;2022-08-06T01:06:44;5.63;;;2.13;;
42538;SDS011;28173;51.376;6.760;2022-08-06T01:09:24;4.65;;;1.95;;
42538;SDS011;28173;51.376;6.760;2022-08-06T01:11:51;5.40;;;2.30;;
42538;SDS011;28173;51.376;6.760;2022-08-06T01:14:25;10.15;;;2.38;;
42538;SDS011;28173;51.376;6.760;2022-08-06T01:25:51;9.38;;;2.20;;
42538;SDS011;28173;51.376;6.760;2022-08-06T01:28:24;6.18;;;1.90;;
42538;SDS011;28173;51.376;6.760;2022-08-06T01:31:05;6.78;;;1.83;;
42538;SDS011;28173;51.376;6.760;2022-08-06T01:33:35;5.25;;;2.00;;
42538;SDS011;28173;51.376;6.760;2022-08-06T01:36:08;7.28;;;2.10;;
42538;SDS011;28173;51.376;6.760;2022-08-06T01:38:44;7.05;;;2.10;;
42538;SDS011;28173;51.376;6.760;2022-08-06T01:41:25;6.13;;;2.17;;
42538;SDS011;28173;51.376;6.760;2022-08-06T01:44:25;7.55;;;2.05;;
42538;SDS011;28173;51.376;6.760;2022-08-06T01:46:57;8.55;;;2.40;;
42538;SDS011;28173;51.376;6.760;2022-08-06T01:49:27;6.20;;;2.33;;
42538;SDS011;28173;51.376;6.760;2022-08-06T01:52:15;3.90;;;1.98;;
42538;SDS011;28173;51.376;6.760;2022-08-06T01:54:55;6.35;;;2.38;;
42538;SDS011;28173;51.376;6.760;2022-08-06T01:57:24;4.55;;;2.20;;
42538;SDS011;28173;51.376;6.760;2022-08-06T02:00:13;5.32;;;2.20;;
42538;SDS011;28173;51.376;6.760;2022-08-06T02:02:41;8.40;;;2.25;;
42538;SDS011;28173;51.376;6.760;2022-08-06T02:05:09;13.77;;;2.40;;
42538;SDS011;28173;51.376;6.760;2022-08-06T02:07:38;5.70;;;2.30;;
42538;SDS011;28173;51.376;6.760;2022-08-06T02:10:27;6.13;;;2.67;;
42538;SDS011;28173;51.376;6.760;2022-08-06T02:12:57;5.93;;;2.20;;
42538;SDS011;28173;51.376;6.760;2022-08-06T02:15:29;4.75;;;2.10;;
42538;SDS011;28173;51.376;6.760;2022-08-06T02:18:17;4.93;;;2.30;;
42538;SDS011;28173;51.376;6.760;2022-08-06T02:21:02;6.93;;;2.53;;
42538;SDS011;28173;51.376;6.760;2022-08-06T02:23:50;5.93;;;2.83;;
42538;SDS011;28173;51.376;6.760;2022-08-06T02:26:18;8.23;;;3.20;;
42538;SDS011;28173;51.376;6.760;2022-08-06T02:28:50;5.68;;;3.25;;
42538;SDS011;28173;51.376;6.760;2022-08-06T02:31:18;8.32;;;2.78;;
42538;SDS011;28173;51.376;6.760;2022-08-06T02:33:48;7.20;;;2.75;;
42538;SDS011;28173;51.376;6.760;2022-08-06T02:36:45;9.00;;;2.55;;
42538;SDS011;28173;51.376;6.760;2022-08-06T02:39:19;9.10;;;2.75;;
42538;SDS011;28173;51.376;6.760;2022-08-06T02:47:41;4.43;;;2.38;;
42538;SDS011;28173;51.376;6.760;2022-08-06T02:50:49;5.22;;;2.00;;
42538;SDS011;28173;51.376;6.760;2022-08-06T02:53:17;6.57;;;2.40;;
42538;SDS011;28173;51.376;6.760;2022-08-06T02:56:01;5.00;;;1.90;;
42538;SDS011;28173;51.376;6.760;2022-08-06T02:58:39;5.40;;;2.10;;
42538;SDS011;28173;51.376;6.760;2022-08-06T03:01:32;4.13;;;2.13;;
42538;SDS011;28173;51.376;6.760;2022-08-06T03:04:09;5.88;;;2.35;;
42538;SDS011;28173;51.376;6.760;2022-08-06T03:06:36;4.28;;;2.40;;
42538;SDS011;28173;51.376;6.760;2022-08-06T03:09:05;7.03;;;2.10;;
42538;SDS011;28173;51.376;6.760;2022-08-06T03:11:35;6.55;;;2.42;;
42538;SDS011;28173;51.376;6.760;2022-08-06T03:14:04;5.95;;;2.35;;
42538;SDS011;28173;51.376;6.760;2022-08-06T03:16:52;8.45;;;2.70;;
42538;SDS011;28173;51.376;6.760;2022-08-06T03:19:23;3.50;;;2.30;;
42538;SDS011;28173;51.376;6.760;2022-08-06T03:22:12;6.90;;;2.60;;
42538;SDS011;28173;51.376;6.760;2022-08-06T03:24:59;6.18;;;1.85;;
42538;SDS011;28173;51.376;6.760;2022-08-06T03:27:29;5.32;;;1.92;;
42538;SDS011;28173;51.376;6.760;2022-08-06T03:30:09;6.10;;;2.42;;
42538;SDS011;28173;51.376;6.760;2022-08-06T03:32:59;4.47;;;2.20;;
42538;SDS011;28173;51.376;6.760;2022-08-06T03:35:49;5.30;;;2.20;;
42538;SDS011;28173;51.376;6.760;2022-08-06T03:38:20;5.50;;;2.10;;
42538;SDS011;28173;51.376;6.760;2022-08-06T03:40:54;5.25;;;2.05;;
42538;SDS011;28173;51.376;6.760;2022-08-06T03:43:22;5.25;;;1.85;;
42538;SDS011;28173;51.376;6.760;2022-08-06T03:45:55;4.05;;;2.08;;
42538;SDS011;28173;51.376;6.760;2022-08-06T03:48:25;3.95;;;1.80;;
42538;SDS011;28173;51.376;6.760;2022-08-06T03:51:04;6.40;;;2.17;;
42538;SDS011;28173;51.376;6.760;2022-08-06T03:53:35;7.07;;;2.65;;
42538;SDS011;28173;51.376;6.760;2022-08-06T03:56:09;8.02;;;2.20;;
42538;SDS011;28173;51.376;6.760;2022-08-06T03:58:40;7.90;;;2.42;;
42538;SDS011;28173;51.376;6.760;2022-08-06T04:01:10;3.55;;;1.80;;
42538;SDS011;28173;51.376;6.760;2022-08-06T04:03:38;6.55;;;2.20;;
42538;SDS011;28173;51.376;6.760;2022-08-06T04:06:06;6.40;;;2.35;;
42538;SDS011;28173;51.376;6.760;2022-08-06T04:08:46;5.47;;;2.30;;
42538;SDS011;28173;51.376;6.760;2022-08-06T04:11:13;5.85;;;2.10;;
42538;SDS011;28173;51.376;6.760;2022-08-06T04:14:02;3.08;;;1.85;;
42538;SDS011;28173;51.376;6.760;2022-08-06T04:16:33;4.43;;;1.88;;
42538;SDS011;28173;51.376;6.760;2022-08-06T04:19:05;5.70;;;1.83;;
42538;SDS011;28173;51.376;6.760;2022-08-06T04:21:34;5.68;;;1.95;;
42538;SDS011;28173;51.376;6.760;2022-08-06T04:24:22;6.25;;;1.95;;
42538;SDS011;28173;51.376;6.760;2022-08-06T04:26:56;5.83;;;2.07;;
42538;SDS011;28173;51.376;6.760;2022-08-06T04:29:25;7.75;;;2.40;;
42538;SDS011;28173;51.376;6.760;2022-08-06T04:32:13;7.15;;;2.25;;
42538;SDS011;28173;51.376;6.760;2022-08-06T04:34:54;7.18;;;2.58;;
42538;SDS011;28173;51.376;6.760;2022-08-06T04:37:41;5.15;;;2.10;;
42538;SDS011;28173;51.376;6.760;2022-08-06T04:40:09;4.85;;;1.92;;
42538;SDS011;28173;51.376;6.760;2022-08-06T04:42:45;6.10;;;2.08;;
42538;SDS011;28173;51.376;6.760;2022-08-06T04:45:15;7.22;;;2.30;;
42538;SDS011;28173;51.376;6.760;2022-08-06T04:48:05;4.18;;;2.20;;
42538;SDS011;28173;51.376;6.760;2022-08-06T04:50:35;5.68;;;2.58;;
42538;SDS011;28173;51.376;6.760;2022-08-06T04:53:05;5.55;;;2.17;;
42538;SDS011;28173;51.376;6.760;2022-08-06T04:55:33;5.20;;;2.10;;
42538;SDS011;28173;51.376;6.760;2022-08-06T04:58:04;8.20;;;2.30;;
42538;SDS011;28173;51.376;6.760;2022-08-06T05:00:41;4.97;;;1.77;;
42538;SDS011;28173;51.376;6.760;2022-08-06T05:03:29;2.97;;;1.80;;
42538;SDS011;28173;51.376;6.760;2022-08-06T05:09:18;7.82;;;2.13;;
42538;SDS011;28173;51.376;6.760;2022-08-06T05:12:13;7.03;;;2.28;;
42538;SDS011;28173;51.376;6.760;2022-08-06T05:14:55;5.80;;;2.22;;
42538;SDS011;28173;51.376;6.760;2022-08-06T05:17:52;2.67;;;1.90;;
42538;SDS011;28173;51.376;6.760;2022-08-06T05:20:25;6.82;;;2.38;;
42538;SDS011;28173;51.376;6.760;2022-08-06T05:22:58;5.30;;;2.03;;
42538;SDS011;28173;51.376;6.760;2022-08-06T05:25:30;5.35;;;2.08;;
42538;SDS011;28173;51.376;6.760;2022-08-06T05:28:02;4.85;;;2.00;;
42538;SDS011;28173;51.376;6.760;2022-08-06T05:33:10;6.22;;;2.25;;
42538;SDS011;28173;51.376;6.760;2022-08-06T05:35:42;4.53;;;2.47;;
42538;SDS011;28173;51.376;6.760;2022-08-06T05:38:25;4.25;;;2.03;;
42538;SDS011;28173;51.376;6.760;2022-08-06T05:41:01;5.70;;;2.00;;
42538;SDS011;28173;51.376;6.760;2022-08-06T05:43:32;5.45;;;2.28;;
42538;SDS011;28173;51.376;6.760;2022-08-06T05:46:20;4.88;;;2.47;;
42538;SDS011;28173;51.376;6.760;2022-08-06T05:49:04;11.23;;;2.90;;
42538;SDS011;28173;51.376;6.760;2022-08-06T05:55:03;9.27;;;2.57;;
42538;SDS011;28173;51.376;6.760;2022-08-06T06:00:25;7.35;;;2.40;;
42538;SDS011;28173;51.376;6.760;2022-08-06T06:03:09;7.50;;;3.10;;
42538;SDS011;28173;51.376;6.760;2022-08-06T06:05:54;8.48;;;2.63;;
42538;SDS011;28173;51.376;6.760;2022-08-06T06:08:33;6.78;;;2.50;;
42538;SDS011;28173;51.376;6.760;2022-08-06T06:11:06;7.60;;;2.65;;
42538;SDS011;28173;51.376;6.760;2022-08-06T06:13:36;6.13;;;2.67;;
42538;SDS011;28173;51.376;6.760;2022-08-06T06:16:29;6.25;;;2.78;;
42538;SDS011;28173;51.376;6.760;2022-08-06T06:19:12;6.75;;;2.85;;
42538;SDS011;28173;51.376;6.760;2022-08-06T06:24:20;8.05;;;2.78;;
42538;SDS011;28173;51.376;6.760;2022-08-06T06:26:54;11.00;;;2.88;;
42538;SDS011;28173;51.376;6.760;2022-08-06T06:32:38;9.95;;;3.08;;
42538;SDS011;28173;51.376;6.760;2022-08-06T06:38:07;10.27;;;3.17;;
42538;SDS011;28173;51.376;6.760;2022-08-06T06:46:16;6.35;;;2.80;;
42538;SDS011;28173;51.376;6.760;2022-08-06T06:49:09;9.05;;;3.40;;
42538;SDS011;28173;51.376;6.760;2022-08-06T06:52:20;7.22;;;3.15;;
42538;SDS011;28173;51.376;6.760;2022-08-06T06:54:59;7.20;;;2.53;;
42538;SDS011;28173;51.376;6.760;2022-08-06T06:57:42;10.55;;;2.50;;
42538;SDS011;28173;51.376;6.760;2022-08-06T07:00:12;4.03;;;1.92;;
42538;SDS011;28173;51.376;6.760;2022-08-06T07:03:00;7.90;;;2.15;;
42538;SDS011;28173;51.376;6.760;2022-08-06T07:05:35;7.20;;;2.03;;
42538;SDS011;28173;51.376;6.760;2022-08-06T07:08:23;3.63;;;1.60;;
42538;SDS011;28173;51.376;6.760;2022-08-06T07:10:57;5.72;;;1.95;;
42538;SDS011;28173;51.376;6.760;2022-08-06T07:13:27;4.10;;;1.65;;
42538;SDS011;28173;51.376;6.760;2022-08-06T07:16:14;4.72;;;1.55;;
42538;SDS011;28173;51.376;6.760;2022-08-06T07:19:02;4.28;;;1.52;;
42538;SDS011;28173;51.376;6.760;2022-08-06T07:21:37;3.75;;;1.63;;
42538;SDS011;28173;51.376;6.760;2022-08-06T07:24:08;4.47;;;1.27;;
42538;SDS011;28173;51.376;6.760;2022-08-06T07:26:56;6.50;;;1.48;;
42538;SDS011;28173;51.376;6.760;2022-08-06T07:29:24;1.85;;;0.98;;
42538;SDS011;28173;51.376;6.760;2022-08-06T07:32:12;5.18;;;1.52;;
42538;SDS011;28173;51.376;6.760;2022-08-06T07:34:58;3.40;;;1.20;;
42538;SDS011;28173;51.376;6.760;2022-08-06T07:37:53;2.75;;;1.00;;
42538;SDS011;28173;51.376;6.760;2022-08-06T07:40:31;4.43;;;0.80;;
42538;SDS011;28173;51.376;6.760;2022-08-06T07:43:05;3.22;;;1.30;;
42538;SDS011;28173;51.376;6.760;2022-08-06T07:45:48;4.55;;;0.90;;
42538;SDS011;28173;51.376;6.760;2022-08-06T07:48:26;3.78;;;0.85;;
42538;SDS011;28173;51.376;6.760;2022-08-06T07:50:59;1.73;;;0.90;;
42538;SDS011;28173;51.376;6.760;2022-08-06T07:53:30;3.97;;;1.10;;
42538;SDS011;28173;51.376;6.760;2022-08-06T07:56:18;1.55;;;0.70;;
42538;SDS011;28173;51.376;6.760;2022-08-06T07:58:45;2.45;;;1.25;;
42538;SDS011;28173;51.376;6.760;2022-08-06T08:01:12;3.88;;;2.03;;
42538;SDS011;28173;51.376;6.760;2022-08-06T08:03:44;4.03;;;1.30;;
42538;SDS011;28173;51.376;6.760;2022-08-06T08:06:50;0.80;;;0.70;;
42538;SDS011;28173;51.376;6.760;2022-08-06T08:09:21;1.88;;;0.65;;
42538;SDS011;28173;51.376;6.760;2022-08-06T08:12:14;2.85;;;0.90;;
42538;SDS011;28173;51.376;6.760;2022-08-06T08:15:01;3.45;;;0.95;;
42538;SDS011;28173;51.376;6.760;2022-08-06T08:17:48;2.03;;;1.23;;
42538;SDS011;28173;51.376;6.760;2022-08-06T08:23:00;4.55;;;1.88;;
42538;SDS011;28173;51.376;6.760;2022-08-06T08:25:31;1.98;;;1.08;;
42538;SDS011;28173;51.376;6.760;2022-08-06T08:28:09;4.72;;;0.90;;
42538;SDS011;28173;51.376;6.760;2022-08-06T08:30:42;3.67;;;0.77;;
42538;SDS011;28173;51.376;6.760;2022-08-06T08:33:15;3.03;;;0.90;;
42538;SDS011;28173;51.376;6.760;2022-08-06T08:35:45;2.58;;;0.60;;
42538;SDS011;28173;51.376;6.760;2022-08-06T08:38:27;4.25;;;0.98;;
42538;SDS011;28173;51.376;6.760;2022-08-06T08:41:21;1.65;;;0.80;;
42538;SDS011;28173;51.376;6.760;2022-08-06T08:43:50;1.27;;;0.80;;
42538;SDS011;28173;51.376;6.760;2022-08-06T08:46:34;1.58;;;0.75;;
42538;SDS011;28173;51.376;6.760;2022-08-06T08:52:13;2.70;;;0.70;;
42538;SDS011;28173;51.376;6.760;2022-08-06T08:54:45;2.70;;;0.82;;
42538;SDS011;28173;51.376;6.760;2022-08-06T08:57:16;6.05;;;0.85;;
42538;SDS011;28173;51.376;6.760;2022-08-06T09:00:04;3.50;;;0.73;;
42538;SDS011;28173;51.376;6.760;2022-08-06T09:02:39;1.15;;;0.68;;
42538;SDS011;28173;51.376;6.760;2022-08-06T09:05:15;1.05;;;0.47;;
42538;SDS011;28173;51.376;6.760;2022-08-06T09:07:43;1.33;;;0.80;;
42538;SDS011;28173;51.376;6.760;2022-08-06T09:10:27;4.80;;;0.90;;
42538;SDS011;28173;51.376;6.760;2022-08-06T09:13:00;1.75;;;0.52;;
42538;SDS011;28173;51.376;6.760;2022-08-06T09:15:47;5.75;;;1.60;;
42538;SDS011;28173;51.376;6.760;2022-08-06T09:18:17;1.85;;;1.10;;
42538;SDS011;28173;51.376;6.760;2022-08-06T09:20:53;2.08;;;0.77;;
42538;SDS011;28173;51.376;6.760;2022-08-06T09:23:24;2.42;;;0.95;;
42538;SDS011;28173;51.376;6.760;2022-08-06T09:25:54;2.00;;;0.60;;
42538;SDS011;28173;51.376;6.760;2022-08-06T09:28:31;2.13;;;0.88;;
42538;SDS011;28173;51.376;6.760;2022-08-06T09:31:08;2.28;;;1.50;;
42538;SDS011;28173;51.376;6.760;2022-08-06T09:33:58;3.50;;;1.10;;
42538;SDS011;28173;51.376;6.760;2022-08-06T09:36:46;1.52;;;1.00;;
42538;SDS011;28173;51.376;6.760;2022-08-06T09:42:37;2.75;;;1.10;;
42538;SDS011;28173;51.376;6.760;2022-08-06T09:45:09;1.48;;;0.70;;
42538;SDS011;28173;51.376;6.760;2022-08-06T09:47:46;4.72;;;0.80;;
42538;SDS011;28173;51.376;6.760;2022-08-06T09:50:44;1.80;;;0.60;;
42538;SDS011;28173;51.376;6.760;2022-08-06T09:56:07;3.22;;;2.15;;
42538;SDS011;28173;51.376;6.760;2022-08-06T09:58:43;3.08;;;0.80;;
42538;SDS011;28173;51.376;6.760;2022-08-06T10:01:11;3.50;;;0.70;;
42538;SDS011;28173;51.376;6.760;2022-08-06T10:03:52;1.25;;;0.80;;
42538;SDS011;28173;51.376;6.760;2022-08-06T10:06:33;4.00;;;1.20;;
42538;SDS011;28173;51.376;6.760;2022-08-06T10:09:11;2.17;;;0.52;;
42538;SDS011;28173;51.376;6.760;2022-08-06T10:11:58;1.75;;;0.68;;
42538;SDS011;28173;51.376;6.760;2022-08-06T10:14:27;4.75;;;0.95;;
42538;SDS011;28173;51.376;6.760;2022-08-06T10:17:32;2.22;;;0.80;;
42538;SDS011;28173;51.376;6.760;2022-08-06T10:20:07;2.33;;;1.20;;
42538;SDS011;28173;51.376;6.760;2022-08-06T10:22:50;1.55;;;0.98;;
42538;SDS011;28173;51.376;6.760;2022-08-06T10:25:23;1.40;;;0.60;;
42538;SDS011;28173;51.376;6.760;2022-08-06T10:27:56;3.35;;;1.00;;
42538;SDS011;28173;51.376;6.760;2022-08-06T10:30:23;3.92;;;1.45;;
42538;SDS011;28173;51.376;6.760;2022-08-06T10:33:05;2.75;;;0.95;;
42538;SDS011;28173;51.376;6.760;2022-08-06T10:35:43;2.20;;;0.60;;
42538;SDS011;28173;51.376;6.760;2022-08-06T10:38:15;1.63;;;0.50;;
42538;SDS011;28173;51.376;6.760;2022-08-06T10:40:44;2.78;;;0.90;;
42538;SDS011;28173;51.376;6.760;2022-08-06T10:43:24;1.85;;;0.68;;
42538;SDS011;28173;51.376;6.760;2022-08-06T10:45:55;2.22;;;1.15;;
42538;SDS011;28173;51.376;6.760;2022-08-06T10:48:25;1.83;;;0.98;;
42538;SDS011;28173;51.376;6.760;2022-08-06T10:51:24;1.92;;;1.27;;
42538;SDS011;28173;51.376;6.760;2022-08-06T10:54:14;1.67;;;1.00;;
42538;SDS011;28173;51.376;6.760;2022-08-06T10:56:49;3.50;;;1.52;;
42538;SDS011;28173;51.376;6.760;2022-08-06T10:59:17;3.35;;;1.70;;
42538;SDS011;28173;51.376;6.760;2022-08-06T11:04:50;2.25;;;1.30;;
42538;SDS011;28173;51.376;6.760;2022-08-06T11:16:21;3.97;;;1.10;;
42538;SDS011;28173;51.376;6.760;2022-08-06T11:18:57;3.15;;;1.20;;
42538;SDS011;28173;51.376;6.760;2022-08-06T11:21:41;3.63;;;1.05;;
42538;SDS011;28173;51.376;6.760;2022-08-06T11:24:29;5.63;;;1.20;;
42538;SDS011;28173;51.376;6.760;2022-08-06T11:27:04;2.83;;;0.73;;
42538;SDS011;28173;51.376;6.760;2022-08-06T11:32:52;1.42;;;0.73;;
42538;SDS011;28173;51.376;6.760;2022-08-06T11:38:59;1.42;;;1.02;;
42538;SDS011;28173;51.376;6.760;2022-08-06T11:41:21;2.17;;;0.80;;
42538;SDS011;28173;51.376;6.760;2022-08-06T11:44:08;0.90;;;0.70;;
42538;SDS011;28173;51.376;6.760;2022-08-06T11:46:43;3.35;;;1.05;;
42538;SDS011;28173;51.376;6.760;2022-08-06T11:49:24;1.50;;;0.85;;
42538;SDS011;28173;51.376;6.760;2022-08-06T11:55:14;1.45;;;0.52;;
42538;SDS011;28173;51.376;6.760;2022-08-06T11:57:57;3.03;;;0.95;;
42538;SDS011;28173;51.376;6.760;2022-08-06T12:00:58;1.35;;;1.10;;
42538;SDS011;28173;51.376;6.760;2022-08-06T12:03:49;4.82;;;1.75;;
42538;SDS011;28173;51.376;6.760;2022-08-06T12:06:19;1.75;;;0.88;;
42538;SDS011;28173;51.376;6.760;2022-08-06T12:14:52;2.60;;;1.13;;
42538;SDS011;28173;51.376;6.760;2022-08-06T12:20:44;5.38;;;0.98;;
42538;SDS011;28173;51.376;6.760;2022-08-06T12:23:21;1.48;;;0.80;;
42538;SDS011;28173;51.376;6.760;2022-08-06T12:26:09;2.70;;;0.85;;
42538;SDS011;28173;51.376;6.760;2022-08-06T12:28:36;3.83;;;1.00;;
42538;SDS011;28173;51.376;6.760;2022-08-06T12:31:04;1.83;;;0.90;;
42538;SDS011;28173;51.376;6.760;2022-08-06T12:33:51;3.17;;;0.63;;
42538;SDS011;28173;51.376;6.760;2022-08-06T12:36:28;1.02;;;0.70;;
42538;SDS011;28173;51.376;6.760;2022-08-06T12:39:04;2.72;;;0.95;;
42538;SDS011;28173;51.376;6.760;2022-08-06T12:41:56;1.75;;;1.00;;
42538;SDS011;28173;51.376;6.760;2022-08-06T12:44:33;1.13;;;1.05;;
42538;SDS011;28173;51.376;6.760;2022-08-06T12:47:26;3.13;;;1.00;;
42538;SDS011;28173;51.376;6.760;2022-08-06T12:50:18;2.28;;;0.80;;
42538;SDS011;28173;51.376;6.760;2022-08-06T12:53:23;1.35;;;0.90;;
42538;SDS011;28173;51.376;6.760;2022-08-06T12:55:53;6.53;;;1.88;;
42538;SDS011;28173;51.376;6.760;2022-08-06T12:58:24;7.10;;;1.48;;
42538;SDS011;28173;51.376;6.760;2022-08-06T13:01:10;1.77;;;1.08;;
42538;SDS011;28173;51.376;6.760;2022-08-06T13:04:04;4.13;;;1.13;;
42538;SDS011;28173;51.376;6.760;2022-08-06T13:06:34;2.70;;;0.95;;
42538;SDS011;28173;51.376;6.760;2022-08-06T13:09:06;2.15;;;0.90;;
42538;SDS011;28173;51.376;6.760;2022-08-06T13:11:36;1.25;;;1.00;;
42538;SDS011;28173;51.376;6.760;2022-08-06T13:14:08;3.50;;;0.70;;
42538;SDS011;28173;51.376;6.760;2022-08-06T13:16:45;1.88;;;0.70;;
42538;SDS011;28173;51.376;6.760;2022-08-06T13:19:30;2.58;;;0.85;;
42538;SDS011;28173;51.376;6.760;2022-08-06T13:22:11;1.95;;;0.70;;
42538;SDS011;28173;51.376;6.760;2022-08-06T13:24:45;1.85;;;0.90;;
42538;SDS011;28173;51.376;6.760;2022-08-06T13:27:33;1.42;;;0.82;;
42538;SDS011;28173;51.376;6.760;2022-08-06T13:30:28;1.95;;;1.05;;
42538;SDS011;28173;51.376;6.760;2022-08-06T13:33:37;2.13;;;0.88;;
42538;SDS011;28173;51.376;6.760;2022-08-06T13:36:17;1.83;;;0.90;;
42538;SDS011;28173;51.376;6.760;2022-08-06T13:38:51;2.17;;;1.48;;
42538;SDS011;28173;51.376;6.760;2022-08-06T13:41:25;0.75;;;0.75;;
42538;SDS011;28173;51.376;6.760;2022-08-06T13:43:55;2.10;;;0.93;;
42538;SDS011;28173;51.376;6.760;2022-08-06T13:46:26;3.53;;;0.90;;
42538;SDS011;28173;51.376;6.760;2022-08-06T13:48:59;1.85;;;0.63;;
42538;SDS011;28173;51.376;6.760;2022-08-06T13:51:43;2.28;;;0.60;;
42538;SDS011;28173;51.376;6.760;2022-08-06T13:54:19;4.78;;;1.10;;
42538;SDS011;28173;51.376;6.760;2022-08-06T13:56:48;3.63;;;1.30;;
42538;SDS011;28173;51.376;6.760;2022-08-06T13:59:21;2.25;;;0.70;;
42538;SDS011;28173;51.376;6.760;2022-08-06T14:02:07;3.45;;;1.20;;
42538;SDS011;28173;51.376;6.760;2022-08-06T14:04:37;1.33;;;0.60;;
42538;SDS011;28173;51.376;6.760;2022-08-06T14:07:06;1.75;;;1.10;;
42538;SDS011;28173;51.376;6.760;2022-08-06T14:09:34;1.08;;;0.70;;
42538;SDS011;28173;51.376;6.760;2022-08-06T14:12:23;2.35;;;0.98;;
42538;SDS011;28173;51.376;6.760;2022-08-06T14:14:59;2.87;;;1.10;;
42538;SDS011;28173;51.376;6.760;2022-08-06T14:17:27;1.05;;;0.70;;
42538;SDS011;28173;51.376;6.760;2022-08-06T14:20:00;4.05;;;1.23;;
42538;SDS011;28173;51.376;6.760;2022-08-06T14:22:45;2.53;;;0.82;;
42538;SDS011;28173;51.376;6.760;2022-08-06T14:25:14;2.78;;;1.00;;
42538;SDS011;28173;51.376;6.760;2022-08-06T14:27:42;2.15;;;1.05;;
42538;SDS011;28173;51.376;6.760;2022-08-06T14:30:18;1.55;;;1.17;;
42538;SDS011;28173;51.376;6.760;2022-08-06T14:32:59;0.70;;;0.70;;
42538;SDS011;28173;51.376;6.760;2022-08-06T14:35:47;2.85;;;0.77;;
42538;SDS011;28173;51.376;6.760;2022-08-06T14:38:26;0.50;;;0.43;;
42538;SDS011;28173;51.376;6.760;2022-08-06T14:41:00;2.22;;;1.40;;
42538;SDS011;28173;51.376;6.760;2022-08-06T14:44:17;1.80;;;0.57;;
42538;SDS011;28173;51.376;6.760;2022-08-06T14:47:11;0.98;;;0.63;;
42538;SDS011;28173;51.376;6.760;2022-08-06T14:50:01;4.72;;;0.77;;
42538;SDS011;28173;51.376;6.760;2022-08-06T14:52:31;3.90;;;0.80;;
42538;SDS011;28173;51.376;6.760;2022-08-06T14:54:58;1.95;;;0.70;;
42538;SDS011;28173;51.376;6.760;2022-08-06T15:00:22;1.17;;;0.70;;
42538;SDS011;28173;51.376;6.760;2022-08-06T15:03:22;4.13;;;1.05;;
42538;SDS011;28173;51.376;6.760;2022-08-06T15:06:36;2.10;;;1.00;;
42538;SDS011;28173;51.376;6.760;2022-08-06T15:09:04;2.13;;;0.90;;
42538;SDS011;28173;51.376;6.760;2022-08-06T15:11:36;3.75;;;0.73;;
42538;SDS011;28173;51.376;6.760;2022-08-06T15:14:28;2.60;;;0.75;;
42538;SDS011;28173;51.376;6.760;2022-08-06T15:17:25;0.95;;;0.77;;
42538;SDS011;28173;51.376;6.760;2022-08-06T15:20:15;1.02;;;0.75;;
42538;SDS011;28173;51.376;6.760;2022-08-06T15:22:59;2.88;;;1.00;;
42538;SDS011;28173;51.376;6.760;2022-08-06T15:25:31;3.20;;;1.10;;
42538;SDS011;28173;51.376;6.760;2022-08-06T15:28:25;1.27;;;0.90;;
42538;SDS011;28173;51.376;6.760;2022-08-06T15:31:17;3.65;;;0.90;;
42538;SDS011;28173;51.376;6.760;2022-08-06T15:34:03;2.30;;;0.82;;
42538;SDS011;28173;51.376;6.760;2022-08-06T15:36:33;1.63;;;0.80;;
42538;SDS011;28173;51.376;6.760;2022-08-06T15:39:07;1.35;;;0.88;;
42538;SDS011;28173;51.376;6.760;2022-08-06T15:41:38;1.42;;;0.80;;
42538;SDS011;28173;51.376;6.760;2022-08-06T15:44:09;1.30;;;0.77;;
42538;SDS011;28173;51.376;6.760;2022-08-06T15:46:43;3.13;;;1.08;;
42538;SDS011;28173;51.376;6.760;2022-08-06T15:49:13;0.77;;;0.77;;
42538;SDS011;28173;51.376;6.760;2022-08-06T15:51:53;2.10;;;0.90;;
42538;SDS011;28173;51.376;6.760;2022-08-06T15:54:39;2.50;;;1.20;;
42538;SDS011;28173;51.376;6.760;2022-08-06T15:57:12;2.67;;;1.38;;
42538;SDS011;28173;51.376;6.760;2022-08-06T15:59:43;3.33;;;1.30;;
42538;SDS011;28173;51.376;6.760;2022-08-06T16:02:18;3.15;;;1.65;;
42538;SDS011;28173;51.376;6.760;2022-08-06T16:05:00;2.88;;;1.10;;
42538;SDS011;28173;51.376;6.760;2022-08-06T16:07:53;2.22;;;1.35;;
42538;SDS011;28173;51.376;6.760;2022-08-06T16:14:20;5.03;;;1.45;;
42538;SDS011;28173;51.376;6.760;2022-08-06T16:17:37;1.80;;;1.08;;
42538;SDS011;28173;51.376;6.760;2022-08-06T17:28:34;1.55;;;0.90;;
42538;SDS011;28173;51.376;6.760;2022-08-06T17:31:07;2.75;;;0.73;;
42538;SDS011;28173;51.376;6.760;2022-08-06T17:33:57;2.20;;;1.13;;
42538;SDS011;28173;51.376;6.760;2022-08-06T17:36:27;4.45;;;1.15;;
42538;SDS011;28173;51.376;6.760;2022-08-06T17:39:15;3.10;;;1.08;;
42538;SDS011;28173;51.376;6.760;2022-08-06T17:41:51;2.47;;;1.10;;
42538;SDS011;28173;51.376;6.760;2022-08-06T17:44:19;2.22;;;0.75;;
42538;SDS011;28173;51.376;6.760;2022-08-06T17:46:46;4.45;;;1.40;;
42538;SDS011;28173;51.376;6.760;2022-08-06T17:49:20;1.70;;;0.90;;
42538;SDS011;28173;51.376;6.760;2022-08-06T17:52:28;0.93;;;0.65;;
42538;SDS011;28173;51.376;6.760;2022-08-06T17:55:13;3.05;;;0.70;;
42538;SDS011;28173;51.376;6.760;2022-08-06T17:58:08;3.35;;;1.00;;
42538;SDS011;28173;51.376;6.760;2022-08-06T18:17:19;3.83;;;0.90;;
42538;SDS011;28173;51.376;6.760;2022-08-06T18:25:35;1.13;;;1.00;;
42538;SDS011;28173;51.376;6.760;2022-08-06T18:37:44;1.23;;;0.70;;
42538;SDS011;28173;51.376;6.760;2022-08-06T18:45:51;1.10;;;0.70;;
42538;SDS011;28173;51.376;6.760;2022-08-06T18:53:05;1.70;;;1.02;;
42538;SDS011;28173;51.376;6.760;2022-08-06T19:13:09;2.93;;;1.03;;
42538;SDS011;28173;51.376;6.760;2022-08-06T19:15:40;5.93;;;1.60;;
42538;SDS011;28173;51.376;6.760;2022-08-06T19:18:22;3.03;;;2.10;;
42538;SDS011;28173;51.376;6.760;2022-08-06T19:21:33;3.00;;;1.65;;
42538;SDS011;28173;51.376;6.760;2022-08-06T19:24:25;1.88;;;1.17;;
42538;SDS011;28173;51.376;6.760;2022-08-06T19:27:01;5.38;;;1.60;;
42538;SDS011;28173;51.376;6.760;2022-08-06T19:29:34;4.07;;;2.30;;
42538;SDS011;28173;51.376;6.760;2022-08-06T19:32:24;1.88;;;1.45;;
42538;SDS011;28173;51.376;6.760;2022-08-06T19:34:57;2.17;;;1.42;;
42538;SDS011;28173;51.376;6.760;2022-08-06T19:37:43;3.03;;;1.27;;